createdAt,value
2018-10-07T00:01:36.085Z,15.93
2018-10-07T00:04:03.775Z,16.13
2018-10-07T00:06:31.456Z,16.03
2018-10-07T00:08:59.170Z,14.77
2018-10-07T00:11:26.873Z,12.90
2018-10-07T00:13:54.578Z,11.87
2018-10-07T00:16:22.301Z,10.70
2018-10-07T00:18:49.994Z,11.17
2018-10-07T00:21:17.700Z,10.73
2018-10-07T00:23:45.404Z,10.27
2018-10-07T00:26:13.072Z,10.80
2018-10-07T00:28:40.762Z,10.73
2018-10-07T00:31:08.488Z,10.60
2018-10-07T00:33:36.141Z,10.67
2018-10-07T00:36:03.884Z,12.10
2018-10-07T00:38:31.616Z,11.20
2018-10-07T00:40:59.377Z,12.80
2018-10-07T00:43:27.149Z,13.83
2018-10-07T00:45:54.805Z,12.13
2018-10-07T00:48:26.998Z,12.90
2018-10-07T00:50:54.825Z,11.87
2018-10-07T00:53:22.541Z,12.87
2018-10-07T00:55:50.329Z,13.83
2018-10-07T00:58:18.022Z,14.07
2018-10-07T01:00:45.812Z,13.73
2018-10-07T01:03:13.492Z,13.47
2018-10-07T01:05:41.280Z,12.90
2018-10-07T01:08:08.936Z,12.20
2018-10-07T01:10:36.641Z,11.33
2018-10-07T01:13:04.337Z,11.43
2018-10-07T01:15:31.969Z,11.00
2018-10-07T01:17:59.808Z,11.63
2018-10-07T01:20:27.555Z,11.10
2018-10-07T01:22:55.285Z,11.60
2018-10-07T01:25:23.032Z,10.77
2018-10-07T01:27:50.748Z,8.67
2018-10-07T01:30:21.553Z,10.40
2018-10-07T01:32:51.036Z,10.57
2018-10-07T01:35:18.905Z,10.63
2018-10-07T01:37:46.779Z,10.33
2018-10-07T01:40:14.530Z,10.57
2018-10-07T01:42:42.178Z,10.10
2018-10-07T01:45:09.897Z,9.80
2018-10-07T01:47:37.653Z,10.27
2018-10-07T01:50:05.657Z,9.67
2018-10-07T01:52:33.309Z,10.43
2018-10-07T01:55:01.032Z,10.23
2018-10-07T01:57:28.681Z,10.70
2018-10-07T01:59:56.365Z,11.03
2018-10-07T02:02:24.097Z,10.90
2018-10-07T02:04:51.767Z,12.23
2018-10-07T02:07:19.405Z,10.77
2018-10-07T02:09:47.201Z,11.40
2018-10-07T02:12:14.858Z,11.03
2018-10-07T02:14:42.481Z,11.10
2018-10-07T02:17:10.208Z,11.13
2018-10-07T02:19:37.866Z,10.77
2018-10-07T02:22:05.623Z,11.20
2018-10-07T02:24:33.313Z,11.00
2018-10-07T02:27:01.268Z,11.27
2018-10-07T02:29:28.961Z,11.67
2018-10-07T02:31:56.657Z,11.23
2018-10-07T02:34:24.326Z,11.00
2018-10-07T02:36:52.122Z,10.30
2018-10-07T02:39:19.869Z,10.90
2018-10-07T02:41:47.616Z,11.07
2018-10-07T02:44:15.353Z,11.87
2018-10-07T02:46:43.160Z,11.47
2018-10-07T02:49:10.842Z,11.43
2018-10-07T02:51:38.665Z,10.37
2018-10-07T02:54:06.436Z,11.67
2018-10-07T02:56:34.228Z,11.47
2018-10-07T02:59:02.202Z,11.70
2018-10-07T03:01:29.975Z,11.57
2018-10-07T03:03:57.733Z,11.07
2018-10-07T03:06:25.461Z,11.27
2018-10-07T03:08:53.207Z,12.30
2018-10-07T03:11:20.922Z,11.00
2018-10-07T03:13:50.412Z,11.47
2018-10-07T03:16:18.120Z,11.43
2018-10-07T03:18:45.767Z,11.60
2018-10-07T03:21:13.558Z,12.20
2018-10-07T03:23:41.225Z,12.40
2018-10-07T03:26:08.953Z,12.43
2018-10-07T03:28:36.644Z,9.03
2018-10-07T03:31:04.359Z,12.07
2018-10-07T03:33:32.049Z,10.93
2018-10-07T03:35:59.909Z,11.67
2018-10-07T03:38:27.584Z,11.77
2018-10-07T03:40:55.545Z,11.67
2018-10-07T03:43:23.321Z,8.90
2018-10-07T03:45:50.991Z,7.43
2018-10-07T03:48:18.681Z,13.07
2018-10-07T03:50:46.381Z,8.77
2018-10-07T03:53:14.098Z,8.50
2018-10-07T03:55:41.764Z,12.27
2018-10-07T03:58:09.468Z,12.80
2018-10-07T04:00:37.200Z,12.97
2018-10-07T04:03:04.973Z,9.27
2018-10-07T04:05:32.677Z,8.13
2018-10-07T04:08:00.406Z,9.23
2018-10-07T04:10:28.029Z,12.13
2018-10-07T04:12:55.764Z,12.47
2018-10-07T04:15:23.482Z,8.10
2018-10-07T04:17:51.256Z,11.80
2018-10-07T04:20:18.916Z,12.43
2018-10-07T04:22:46.576Z,12.63
2018-10-07T04:25:14.299Z,11.07
2018-10-07T04:27:41.981Z,14.17
2018-10-07T04:30:09.698Z,14.97
2018-10-07T04:32:37.396Z,16.67
2018-10-07T04:35:05.137Z,17.27
2018-10-07T04:37:32.898Z,16.23
2018-10-07T04:40:00.657Z,15.27
2018-10-07T04:42:28.253Z,15.57
2018-10-07T04:44:55.973Z,13.00
2018-10-07T04:47:23.648Z,15.20
2018-10-07T04:49:51.381Z,12.03
2018-10-07T04:52:19.085Z,12.90
2018-10-07T04:54:46.752Z,14.30
2018-10-07T04:57:14.473Z,14.53
2018-10-07T04:59:42.249Z,15.60
2018-10-07T05:02:09.909Z,14.70
2018-10-07T05:04:37.656Z,10.57
2018-10-07T05:07:05.635Z,10.97
2018-10-07T05:09:33.913Z,10.83
2018-10-07T05:12:04.693Z,12.93
2018-10-07T05:14:32.485Z,13.20
2018-10-07T05:17:00.577Z,13.20
2018-10-07T05:19:28.342Z,8.10
2018-10-07T05:21:56.164Z,8.10
2018-10-07T05:24:23.916Z,13.73
2018-10-07T05:26:51.654Z,14.50
2018-10-07T05:29:19.373Z,15.27
2018-10-07T05:31:47.020Z,16.83
2018-10-07T05:34:14.693Z,15.50
2018-10-07T05:36:42.456Z,15.13
2018-10-07T05:39:11.245Z,16.23
2018-10-07T05:41:38.961Z,13.87
2018-10-07T05:44:06.710Z,15.27
2018-10-07T05:46:34.396Z,15.40
2018-10-07T05:49:02.092Z,15.87
2018-10-07T05:51:29.842Z,14.60
2018-10-07T05:53:57.592Z,15.37
2018-10-07T05:56:25.351Z,15.20
2018-10-07T05:58:55.525Z,15.97
2018-10-07T06:01:28.769Z,16.93
2018-10-07T06:04:18.241Z,14.90
2018-10-07T06:06:46.360Z,9.53
2018-10-07T06:09:33.179Z,16.63
2018-10-07T06:12:08.447Z,16.43
2018-10-07T06:14:54.172Z,11.83
2018-10-07T06:17:21.823Z,16.73
2018-10-07T06:19:49.525Z,17.73
2018-10-07T06:22:17.286Z,18.07
2018-10-07T06:24:49.818Z,19.03
2018-10-07T06:27:17.636Z,18.77
2018-10-07T06:29:45.470Z,21.87
2018-10-07T06:32:13.233Z,22.23
2018-10-07T06:34:40.974Z,22.53
2018-10-07T06:37:08.693Z,18.00
2018-10-07T06:39:36.501Z,22.37
2018-10-07T06:42:04.249Z,23.23
2018-10-07T06:44:31.979Z,23.63
2018-10-07T06:47:02.877Z,25.63
2018-10-07T06:49:30.601Z,24.57
2018-10-07T06:51:58.433Z,23.70
2018-10-07T06:54:26.174Z,25.07
2018-10-07T06:56:54.009Z,20.20
2018-10-07T06:59:21.800Z,24.70
2018-10-07T07:01:49.577Z,22.40
2018-10-07T07:04:17.413Z,24.20
2018-10-07T07:06:45.242Z,24.87
2018-10-07T07:09:12.877Z,25.00
2018-10-07T07:11:40.645Z,23.40
2018-10-07T07:14:08.504Z,23.00
2018-10-07T07:16:36.444Z,24.53
2018-10-07T07:19:04.189Z,24.33
2018-10-07T07:21:31.913Z,24.33
2018-10-07T07:24:01.117Z,24.87
2018-10-07T07:26:28.802Z,24.93
2018-10-07T07:28:56.500Z,24.93
2018-10-07T07:31:24.565Z,24.17
2018-10-07T07:33:52.503Z,24.87
2018-10-07T07:36:20.217Z,25.80
2018-10-07T07:38:47.933Z,28.40
2018-10-07T07:41:15.701Z,25.50
2018-10-07T07:43:43.321Z,26.83
2018-10-07T07:46:11.552Z,27.90
2018-10-07T07:48:39.258Z,26.97
2018-10-07T07:51:09.697Z,27.37
2018-10-07T07:53:38.078Z,26.00
2018-10-07T07:56:05.993Z,25.47
2018-10-07T07:58:33.705Z,26.40
2018-10-07T08:01:01.497Z,27.60
2018-10-07T08:03:29.265Z,28.17
2018-10-07T08:05:57.003Z,26.00
2018-10-07T08:08:24.910Z,27.57
2018-10-07T08:10:52.665Z,24.67
2018-10-07T08:13:20.449Z,26.17
2018-10-07T08:15:48.140Z,27.53
2018-10-07T08:18:15.857Z,27.33
2018-10-07T08:20:43.606Z,26.90
2018-10-07T08:23:11.329Z,28.70
2018-10-07T08:25:39.017Z,28.20
2018-10-07T08:28:07.657Z,28.60
2018-10-07T08:30:35.382Z,29.77
2018-10-07T08:33:04.628Z,29.63
2018-10-07T08:35:32.324Z,27.43
2018-10-07T08:38:00.018Z,28.23
2018-10-07T08:40:27.765Z,31.23
2018-10-07T08:42:55.413Z,29.40
2018-10-07T08:45:23.070Z,29.87
2018-10-07T08:47:50.764Z,32.33
2018-10-07T08:50:18.485Z,29.87
2018-10-07T08:52:46.201Z,29.73
2018-10-07T08:55:13.928Z,28.83
2018-10-07T08:57:41.613Z,27.63
2018-10-07T09:00:09.358Z,29.27
2018-10-07T09:02:37.129Z,27.90
2018-10-07T09:05:04.876Z,30.33
2018-10-07T09:07:32.581Z,29.20
2018-10-07T09:10:00.181Z,29.57
2018-10-07T09:12:27.925Z,29.17
2018-10-07T09:14:55.617Z,28.07
2018-10-07T09:17:23.381Z,28.70
2018-10-07T09:19:51.073Z,29.20
2018-10-07T09:22:18.736Z,29.20
2018-10-07T09:24:46.368Z,30.00
2018-10-07T09:27:14.173Z,30.57
2018-10-07T09:29:41.853Z,30.37
2018-10-07T09:32:09.649Z,30.63
2018-10-07T09:34:37.330Z,31.07
2018-10-07T09:37:05.462Z,31.23
2018-10-07T09:39:33.227Z,29.30
2018-10-07T09:42:00.933Z,30.13
2018-10-07T09:44:28.660Z,30.57
2018-10-07T09:46:56.365Z,29.07
2018-10-07T09:49:24.124Z,29.67
2018-10-07T09:51:51.820Z,31.17
2018-10-07T09:54:19.529Z,31.00
2018-10-07T09:56:47.249Z,30.90
2018-10-07T09:59:14.988Z,32.10
2018-10-07T10:01:42.689Z,31.13
2018-10-07T10:04:10.461Z,30.20
2018-10-07T10:06:38.076Z,29.80
2018-10-07T10:09:07.577Z,27.60
2018-10-07T10:11:35.288Z,27.87
2018-10-07T10:14:03.128Z,30.63
2018-10-07T10:16:42.928Z,28.37
2018-10-07T10:20:17.431Z,27.70
2018-10-07T10:22:54.724Z,25.60
2018-10-07T10:25:35.832Z,23.63
2018-10-07T10:28:17.924Z,23.50
2018-10-07T10:31:00.781Z,19.90
2018-10-07T10:33:31.968Z,19.03
2018-10-07T10:36:19.244Z,20.40
2018-10-07T10:39:09.104Z,20.13
2018-10-07T10:41:48.876Z,20.60
2018-10-07T10:44:21.820Z,19.40
2018-10-07T10:47:02.540Z,18.00
2018-10-07T10:49:56.461Z,22.50
2018-10-07T10:52:30.226Z,20.37
2018-10-07T10:55:10.570Z,20.83
2018-10-07T10:57:49.980Z,22.80
2018-10-07T11:00:24.664Z,19.73
2018-10-07T11:03:37.096Z,19.70
2018-10-07T11:06:28.681Z,19.77
2018-10-07T11:09:07.677Z,19.43
2018-10-07T11:11:55.623Z,16.10
2018-10-07T11:15:41.772Z,15.53
2018-10-07T11:19:23.828Z,15.53
2018-10-07T11:24:08.740Z,14.70
2018-10-07T11:26:47.029Z,11.83
2018-10-07T11:29:30.749Z,12.77
2018-10-07T11:32:17.376Z,12.30
2018-10-07T11:35:01.925Z,12.70
2018-10-07T11:38:18.140Z,14.57
2018-10-07T11:41:00.812Z,12.20
2018-10-07T11:43:42.932Z,9.63
2018-10-07T11:46:35.521Z,9.20
2018-10-07T11:49:11.317Z,9.73
2018-10-07T11:51:54.364Z,11.30
2018-10-07T11:54:40.284Z,12.63
2018-10-07T11:57:07.945Z,12.43
2018-10-07T11:59:35.709Z,11.77
2018-10-07T12:02:03.467Z,12.33
2018-10-07T12:04:31.141Z,12.13
2018-10-07T12:06:58.877Z,13.80
2018-10-07T12:09:26.558Z,14.67
2018-10-07T12:11:58.008Z,14.73
2018-10-07T12:14:25.809Z,12.77
2018-10-07T12:16:53.589Z,12.60
2018-10-07T12:19:21.261Z,11.57
2018-10-07T12:21:49.020Z,10.90
2018-10-07T12:24:16.678Z,10.00
2018-10-07T12:26:44.345Z,10.07
2018-10-07T12:29:12.072Z,7.87
2018-10-07T12:31:39.739Z,7.23
2018-10-07T12:34:07.461Z,7.57
2018-10-07T12:36:35.126Z,7.47
2018-10-07T12:39:03.033Z,8.13
2018-10-07T12:41:30.772Z,8.00
2018-10-07T12:43:58.454Z,7.77
2018-10-07T12:46:26.153Z,7.63
2018-10-07T12:48:54.106Z,8.27
2018-10-07T12:51:21.872Z,7.10
2018-10-07T12:53:49.603Z,6.07
2018-10-07T12:56:17.289Z,7.20
2018-10-07T12:58:45.105Z,7.03
2018-10-07T13:01:13.136Z,7.60
2018-10-07T13:03:40.763Z,7.53
2018-10-07T13:06:08.475Z,7.53
2018-10-07T13:08:36.683Z,8.50
2018-10-07T13:11:04.495Z,9.00
2018-10-07T13:13:32.338Z,9.20
2018-10-07T13:16:00.057Z,8.30
2018-10-07T13:18:27.809Z,8.90
2018-10-07T13:20:55.557Z,8.87
2018-10-07T13:23:23.500Z,9.33
2018-10-07T13:25:51.341Z,8.97
2018-10-07T13:28:19.040Z,10.33
2018-10-07T13:30:46.647Z,10.17
2018-10-07T13:33:14.337Z,10.90
2018-10-07T13:35:42.011Z,11.73
2018-10-07T13:38:14.029Z,10.87
2018-10-07T13:40:41.856Z,11.60
2018-10-07T13:43:09.574Z,10.97
2018-10-07T13:45:37.292Z,11.40
2018-10-07T13:48:04.981Z,10.20
2018-10-07T13:50:32.657Z,10.43
2018-10-07T13:53:00.296Z,10.40
2018-10-07T13:55:28.025Z,9.30
2018-10-07T13:57:55.721Z,9.47
2018-10-07T14:00:24.528Z,8.77
2018-10-07T14:02:52.358Z,8.17
2018-10-07T14:05:20.082Z,9.70
2018-10-07T14:07:47.784Z,10.83
2018-10-07T14:10:15.480Z,10.07
2018-10-07T14:12:43.169Z,9.43
2018-10-07T14:15:10.825Z,8.80
2018-10-07T14:17:38.456Z,9.30
2018-10-07T14:20:06.317Z,9.50
2018-10-07T14:22:33.997Z,8.73
2018-10-07T14:25:01.725Z,8.13
2018-10-07T14:27:29.457Z,8.70
2018-10-07T14:29:57.177Z,8.10
2018-10-07T14:32:24.940Z,7.60
2018-10-07T14:34:52.646Z,7.63
2018-10-07T14:37:20.445Z,7.60
2018-10-07T14:39:48.118Z,7.10
2018-10-07T14:42:15.884Z,6.57
2018-10-07T14:44:43.612Z,6.30
2018-10-07T14:47:11.297Z,6.33
2018-10-07T14:49:38.980Z,6.43
2018-10-07T14:52:06.725Z,6.37
2018-10-07T14:54:34.381Z,6.67
2018-10-07T14:57:02.064Z,5.60
2018-10-07T14:59:29.785Z,5.67
2018-10-07T15:01:57.517Z,5.70
2018-10-07T15:04:25.241Z,5.37
2018-10-07T15:06:52.888Z,4.93
2018-10-07T15:09:20.557Z,5.60
2018-10-07T15:11:48.265Z,4.43
2018-10-07T15:14:15.930Z,4.53
2018-10-07T15:16:43.916Z,4.43
2018-10-07T15:19:11.618Z,4.00
2018-10-07T15:21:39.318Z,4.60
2018-10-07T15:24:07.042Z,5.77
2018-10-07T15:26:34.745Z,6.40
2018-10-07T15:29:02.477Z,4.80
2018-10-07T15:31:30.209Z,6.60
2018-10-07T15:33:57.914Z,5.57
2018-10-07T15:36:25.696Z,5.20
2018-10-07T15:38:53.373Z,5.07
2018-10-07T15:41:21.087Z,4.57
2018-10-07T15:43:48.729Z,3.83
2018-10-07T15:46:16.434Z,4.17
2018-10-07T15:48:44.200Z,3.93
2018-10-07T15:51:12.021Z,3.50
2018-10-07T15:53:39.762Z,3.30
2018-10-07T15:56:07.508Z,3.07
2018-10-07T15:58:35.204Z,3.43
2018-10-07T16:01:02.941Z,3.47
2018-10-07T16:03:30.688Z,3.47
2018-10-07T16:05:58.372Z,3.27
2018-10-07T16:08:26.008Z,3.67
2018-10-07T16:10:53.750Z,3.30
2018-10-07T16:13:21.364Z,3.10
2018-10-07T16:15:49.076Z,3.27
2018-10-07T16:18:16.806Z,3.27
2018-10-07T16:20:44.487Z,3.07
2018-10-07T16:23:12.113Z,2.80
2018-10-07T16:25:39.822Z,2.60
2018-10-07T16:28:07.508Z,2.60
2018-10-07T16:30:35.136Z,3.37
2018-10-07T16:33:02.837Z,2.70
2018-10-07T16:35:30.489Z,2.83
2018-10-07T16:37:58.149Z,3.10
2018-10-07T16:40:25.866Z,3.08
2018-10-07T16:42:53.585Z,2.50
2018-10-07T16:45:21.309Z,2.63
2018-10-07T16:47:49.002Z,2.87
2018-10-07T16:50:16.672Z,3.43
2018-10-07T16:52:49.241Z,2.57
2018-10-07T16:55:17.065Z,2.43
2018-10-07T16:57:44.856Z,2.53
2018-10-07T17:00:12.529Z,2.53
2018-10-07T17:02:40.293Z,2.77
2018-10-07T17:05:08.017Z,2.60
2018-10-07T17:07:35.781Z,3.47
2018-10-07T17:10:03.620Z,4.43
2018-10-07T17:12:31.365Z,5.53
2018-10-07T17:14:59.032Z,5.27
2018-10-07T17:17:26.865Z,3.70
2018-10-07T17:19:54.553Z,3.10
2018-10-07T17:22:22.273Z,2.93
2018-10-07T17:24:50.015Z,2.77
2018-10-07T17:27:17.723Z,2.67
2018-10-07T17:29:45.433Z,2.90
2018-10-07T17:32:13.108Z,3.30
2018-10-07T17:34:40.769Z,3.03
2018-10-07T17:37:08.469Z,3.03
2018-10-07T17:39:36.209Z,2.83
2018-10-07T17:42:03.886Z,3.07
2018-10-07T17:44:31.589Z,2.87
2018-10-07T17:46:59.247Z,2.67
2018-10-07T17:49:26.923Z,3.30
2018-10-07T17:51:54.621Z,3.20
2018-10-07T17:54:22.300Z,2.77
2018-10-07T17:56:49.974Z,2.93
2018-10-07T17:59:17.669Z,3.00
2018-10-07T18:01:45.357Z,3.20
2018-10-07T18:04:13.093Z,3.30
2018-10-07T18:06:40.917Z,3.37
2018-10-07T18:09:09.189Z,3.20
2018-10-07T18:11:37.019Z,3.47
2018-10-07T18:14:04.818Z,3.03
2018-10-07T18:16:32.544Z,3.03
2018-10-07T18:19:00.287Z,3.60
2018-10-07T18:21:28.800Z,3.20
2018-10-07T18:23:56.639Z,3.50
2018-10-07T18:26:24.405Z,3.50
2018-10-07T18:28:52.141Z,4.00
2018-10-07T18:31:19.936Z,3.50
2018-10-07T18:33:47.716Z,4.50
2018-10-07T18:36:15.417Z,4.10
2018-10-07T18:38:43.101Z,4.43
2018-10-07T18:41:10.834Z,4.57
2018-10-07T18:43:39.449Z,4.63
2018-10-07T18:46:07.146Z,4.57
2018-10-07T18:48:35.338Z,4.37
2018-10-07T18:51:03.296Z,5.10
2018-10-07T18:53:31.017Z,4.70
2018-10-07T18:55:58.708Z,4.83
2018-10-07T18:58:26.400Z,4.33
2018-10-07T19:00:54.081Z,4.77
2018-10-07T19:03:21.748Z,4.53
2018-10-07T19:05:49.497Z,4.30
2018-10-07T19:08:17.269Z,4.17
2018-10-07T19:10:44.943Z,5.30
2018-10-07T19:13:12.565Z,5.27
2018-10-07T19:15:40.796Z,4.60
2018-10-07T19:18:08.453Z,4.80
2018-10-07T19:20:36.270Z,4.37
2018-10-07T19:23:04.009Z,4.30
2018-10-07T19:25:31.686Z,4.50
2018-10-07T19:27:59.430Z,4.73
2018-10-07T19:30:27.764Z,4.80
2018-10-07T19:32:55.457Z,4.53
2018-10-07T19:35:23.213Z,4.30
2018-10-07T19:37:50.898Z,4.47
2018-10-07T19:40:18.561Z,4.70
2018-10-07T19:42:46.456Z,4.80
2018-10-07T19:45:14.195Z,4.57
2018-10-07T19:47:44.312Z,4.80
2018-10-07T19:50:12.085Z,4.83
2018-10-07T19:52:39.849Z,4.40
2018-10-07T19:55:07.489Z,4.20
2018-10-07T19:57:35.182Z,4.60
2018-10-07T20:00:03.041Z,4.87
2018-10-07T20:02:30.692Z,4.53
2018-10-07T20:04:58.423Z,4.87
2018-10-07T20:07:26.305Z,4.97
2018-10-07T20:09:53.985Z,4.67
2018-10-07T20:12:21.746Z,4.50
2018-10-07T20:14:53.608Z,4.53
2018-10-07T20:17:21.399Z,5.07
2018-10-07T20:19:49.096Z,5.40
2018-10-07T20:22:17.305Z,5.13
2018-10-07T20:24:45.174Z,5.43
2018-10-07T20:27:12.971Z,5.30
2018-10-07T20:29:41.222Z,5.50
2018-10-07T20:32:09.076Z,5.50
2018-10-07T20:34:37.547Z,5.80
2018-10-07T20:37:05.537Z,5.70
2018-10-07T20:39:33.336Z,5.43
2018-10-07T20:44:57.594Z,5.87
2018-10-07T20:47:25.743Z,6.07
2018-10-07T20:49:54.821Z,6.43
2018-10-07T20:52:25.317Z,6.27
2018-10-07T20:54:52.956Z,6.77
2018-10-07T20:57:28.952Z,6.27
2018-10-07T20:59:59.480Z,7.37
2018-10-07T21:02:27.736Z,6.73
2018-10-07T21:04:58.173Z,7.73
2018-10-07T21:07:32.701Z,7.53
2018-10-07T21:10:01.352Z,6.60
2018-10-07T21:12:29.564Z,7.97
2018-10-07T21:15:03.644Z,7.27
2018-10-07T21:17:33.265Z,7.13
2018-10-07T21:20:03.915Z,7.33
2018-10-07T21:22:31.964Z,7.10
2018-10-07T21:24:59.787Z,7.27
2018-10-07T21:27:28.631Z,7.50
2018-10-07T21:29:57.039Z,6.80
2018-10-07T21:32:25.037Z,7.37
2018-10-07T21:34:55.201Z,7.67
2018-10-07T21:37:23.136Z,7.90
2018-10-07T21:39:51.001Z,7.87
2018-10-07T21:42:19.030Z,7.60
2018-10-07T21:44:47.212Z,7.40
2018-10-07T21:47:16.719Z,7.80
2018-10-07T21:49:44.492Z,8.13
2018-10-07T21:52:16.730Z,7.30
2018-10-07T21:54:45.041Z,7.27
2018-10-07T21:57:12.781Z,6.73
2018-10-07T21:59:40.653Z,7.40
2018-10-07T22:02:08.389Z,6.80
2018-10-07T22:04:37.396Z,6.90
2018-10-07T22:07:05.257Z,6.87
2018-10-07T22:09:32.970Z,5.90
2018-10-07T22:12:00.628Z,6.07
2018-10-07T22:14:28.353Z,5.93
2018-10-07T22:16:56.073Z,6.43
2018-10-07T22:19:23.782Z,5.63
2018-10-07T22:21:51.513Z,5.80
2018-10-07T22:24:19.262Z,5.63
2018-10-07T22:26:47.004Z,5.83
2018-10-07T22:29:14.713Z,5.77
2018-10-07T22:31:42.436Z,5.93
2018-10-07T22:34:13.424Z,5.30
2018-10-07T22:36:41.138Z,6.33
2018-10-07T22:39:08.913Z,6.17
2018-10-07T22:41:36.813Z,5.43
2018-10-07T22:44:04.625Z,5.47
2018-10-07T22:46:32.369Z,5.50
2018-10-07T22:49:00.340Z,5.63
2018-10-07T22:51:28.086Z,5.50
2018-10-07T22:53:55.835Z,5.53
2018-10-07T22:56:23.505Z,4.83
2018-10-07T22:58:51.269Z,5.97
2018-10-07T23:01:18.977Z,5.30
2018-10-07T23:03:46.636Z,5.77
2018-10-07T23:06:14.269Z,6.20
2018-10-07T23:08:42.061Z,5.53
2018-10-07T23:11:09.680Z,5.60
2018-10-07T23:13:37.392Z,5.57
2018-10-07T23:16:05.161Z,6.43
2018-10-07T23:18:32.881Z,5.97
2018-10-07T23:21:00.693Z,6.13
2018-10-07T23:23:28.393Z,5.60
2018-10-07T23:25:56.133Z,6.40
2018-10-07T23:28:23.890Z,6.67
2018-10-07T23:30:51.670Z,6.63
2018-10-07T23:33:19.301Z,6.70
2018-10-07T23:35:47.033Z,6.37
2018-10-07T23:38:14.880Z,6.23
2018-10-07T23:40:43.704Z,6.40
2018-10-07T23:43:11.396Z,6.83
2018-10-07T23:45:39.190Z,6.23
2018-10-07T23:48:06.892Z,6.53
2018-10-07T23:50:34.653Z,6.37
2018-10-07T23:53:02.350Z,6.63
2018-10-07T23:55:30.064Z,6.50
2018-10-07T23:57:57.725Z,6.47
